createdAt,value
2022-08-18T00:00:20.059Z,46.78
2022-08-18T00:03:00.578Z,48.33
2022-08-18T00:05:29.894Z,47.80
2022-08-18T00:07:59.652Z,48.58
2022-08-18T00:10:28.256Z,52.40
2022-08-18T00:12:58.592Z,47.65
2022-08-18T00:15:29.875Z,48.72
2022-08-18T00:17:58.394Z,51.85
2022-08-18T00:20:26.858Z,45.08
2022-08-18T00:22:59.043Z,45.42
2022-08-18T00:25:27.458Z,46.13
2022-08-18T00:27:55.975Z,47.72
2022-08-18T00:30:24.949Z,46.05
2022-08-18T00:32:56.128Z,43.88
2022-08-18T00:35:33.740Z,44.65
2022-08-18T00:38:05.348Z,46.50
2022-08-18T00:40:54.940Z,46.22
2022-08-18T00:43:36.684Z,41.50
2022-08-18T00:46:08.383Z,47.15
2022-08-18T00:48:37.053Z,49.25
2022-08-18T00:51:12.388Z,47.50
2022-08-18T00:53:45.677Z,50.38
2022-08-18T00:56:38.334Z,51.80
2022-08-18T00:59:17.468Z,49.58
2022-08-18T01:01:48.877Z,53.42
2022-08-18T01:04:29.920Z,49.30
2022-08-18T01:07:03.129Z,55.50
2022-08-18T01:09:31.594Z,52.55
2022-08-18T01:12:00.010Z,48.95
2022-08-18T01:14:28.767Z,48.25
2022-08-18T01:17:15.633Z,49.05
2022-08-18T01:20:02.504Z,49.55
2022-08-18T01:22:47.531Z,53.25
2022-08-18T01:25:38.382Z,49.03
2022-08-18T01:28:07.008Z,53.20
2022-08-18T01:30:50.110Z,52.47
2022-08-18T01:33:19.317Z,50.40
2022-08-18T01:35:49.381Z,53.47
2022-08-18T01:38:22.624Z,52.88
2022-08-18T01:41:27.717Z,51.55
2022-08-18T01:43:40.111Z,51.83
2022-08-18T01:46:08.986Z,51.30
2022-08-18T01:48:38.263Z,51.30
2022-08-18T01:51:09.098Z,50.45
2022-08-18T01:53:37.932Z,46.80
2022-08-18T01:56:07.705Z,55.42
2022-08-18T01:58:37.046Z,50.40
2022-08-18T02:01:05.763Z,47.00
2022-08-18T02:03:44.230Z,54.17
2022-08-18T02:06:14.973Z,48.28
2022-08-18T02:08:46.345Z,49.75
2022-08-18T02:11:18.843Z,50.03
2022-08-18T02:13:47.282Z,46.50
2022-08-18T02:16:16.822Z,45.83
2022-08-18T02:18:48.463Z,49.80
2022-08-18T02:21:20.001Z,47.03
2022-08-18T02:23:53.645Z,47.47
2022-08-18T02:26:23.510Z,49.42
2022-08-18T02:28:52.362Z,50.35
2022-08-18T02:31:23.416Z,48.30
2022-08-18T02:33:52.799Z,50.00
2022-08-18T02:36:25.226Z,44.72
2022-08-18T02:38:59.611Z,49.20
2022-08-18T02:41:29.765Z,47.70
2022-08-18T02:43:59.893Z,46.33
2022-08-18T02:46:30.050Z,47.05
2022-08-18T02:49:00.675Z,45.40
2022-08-18T02:51:29.365Z,45.75
2022-08-18T02:54:01.116Z,46.60
2022-08-18T02:56:40.303Z,44.83
2022-08-18T02:59:14.346Z,41.22
2022-08-18T03:01:46.150Z,40.40
2022-08-18T03:06:45.309Z,39.80
2022-08-18T03:09:16.950Z,39.63
2022-08-18T03:11:45.832Z,43.38
2022-08-18T03:14:15.363Z,41.50
2022-08-18T03:16:54.029Z,45.38
2022-08-18T03:19:25.956Z,44.30
2022-08-18T03:21:55.363Z,44.55
2022-08-18T03:24:28.487Z,47.65
2022-08-18T03:26:57.261Z,48.63
2022-08-18T03:29:31.126Z,41.35
2022-08-18T03:32:02.962Z,44.72
2022-08-18T03:34:32.157Z,40.85
2022-08-18T03:37:01.411Z,42.10
2022-08-18T03:39:29.863Z,38.97
2022-08-18T03:42:01.408Z,41.10
2022-08-18T03:44:33.422Z,39.17
2022-08-18T03:47:04.784Z,40.40
2022-08-18T03:49:33.814Z,43.38
2022-08-18T03:52:03.940Z,42.45
2022-08-18T03:54:33.624Z,43.67
2022-08-18T03:57:02.023Z,45.47
2022-08-18T03:59:32.048Z,45.15
2022-08-18T04:02:03.615Z,47.47
2022-08-18T04:04:32.867Z,45.55
2022-08-18T04:07:10.233Z,48.45
2022-08-18T04:09:39.283Z,50.30
2022-08-18T04:12:17.050Z,50.85
2022-08-18T04:14:49.576Z,49.13
2022-08-18T04:17:24.476Z,49.72
2022-08-18T04:19:54.786Z,47.92
2022-08-18T04:22:24.922Z,51.80
2022-08-18T04:24:54.034Z,53.03
2022-08-18T04:27:22.781Z,50.72
2022-08-18T04:29:51.370Z,58.55
2022-08-18T04:32:19.799Z,60.85
2022-08-18T04:34:48.361Z,52.50
2022-08-18T04:37:17.414Z,53.03
2022-08-18T04:39:46.164Z,50.05
2022-08-18T04:42:15.400Z,54.22
2022-08-18T04:44:43.856Z,48.80
2022-08-18T04:47:13.136Z,55.40
2022-08-18T04:49:43.686Z,56.08
2022-08-18T04:52:40.835Z,50.92
2022-08-18T04:55:10.957Z,53.78
2022-08-18T04:57:39.500Z,53.90
2022-08-18T05:00:12.416Z,54.58
2022-08-18T05:02:41.325Z,55.72
2022-08-18T05:05:11.135Z,48.75
2022-08-18T05:07:46.759Z,53.47
2022-08-18T05:10:17.711Z,51.88
2022-08-18T05:12:48.339Z,50.07
2022-08-18T05:15:18.772Z,53.15
2022-08-18T05:17:49.318Z,53.90
2022-08-18T05:20:19.731Z,51.95
2022-08-18T05:22:48.242Z,48.00
2022-08-18T05:25:17.362Z,50.20
2022-08-18T05:27:45.815Z,50.90
2022-08-18T05:30:15.357Z,50.42
2022-08-18T05:32:48.726Z,51.17
2022-08-18T05:35:35.620Z,49.50
2022-08-18T05:38:22.284Z,49.30
2022-08-18T05:41:14.142Z,44.47
2022-08-18T05:43:51.343Z,49.55
2022-08-18T05:46:30.034Z,47.00
2022-08-18T05:48:58.477Z,49.60
2022-08-18T05:51:34.499Z,50.30
2022-08-18T05:54:23.719Z,47.45
2022-08-18T05:56:55.978Z,45.28
2022-08-18T05:59:32.393Z,46.53
2022-08-18T06:02:11.922Z,43.15
2022-08-18T06:04:56.836Z,47.58
2022-08-18T06:07:40.867Z,47.88
2022-08-18T06:10:10.914Z,44.97
2022-08-18T06:12:47.105Z,47.70
2022-08-18T06:15:25.305Z,46.80
2022-08-18T06:18:08.290Z,55.33
2022-08-18T06:20:52.588Z,45.38
2022-08-18T06:23:41.121Z,46.05
2022-08-18T06:26:19.739Z,42.95
2022-08-18T06:28:54.074Z,44.67
2022-08-18T06:32:01.323Z,47.67
2022-08-18T06:34:55.399Z,45.47
2022-08-18T06:37:33.352Z,43.83
2022-08-18T06:40:02.248Z,42.47
2022-08-18T06:42:30.872Z,35.28
2022-08-18T06:45:12.573Z,40.70
2022-08-18T06:48:00.321Z,39.85
2022-08-18T06:50:52.120Z,37.58
2022-08-18T06:53:27.851Z,42.17
2022-08-18T06:55:57.784Z,40.45
2022-08-18T06:58:30.262Z,43.40
2022-08-18T07:01:06.968Z,40.67
2022-08-18T07:03:35.387Z,34.92
2022-08-18T07:06:21.650Z,35.10
2022-08-18T07:08:57.042Z,36.42
2022-08-18T07:11:25.481Z,32.15
2022-08-18T07:14:14.928Z,30.85
2022-08-18T07:17:00.291Z,31.30
2022-08-18T07:19:31.963Z,30.13
2022-08-18T07:22:06.745Z,30.25
2022-08-18T07:24:44.822Z,28.55
2022-08-18T07:27:17.667Z,24.80
2022-08-18T07:30:15.375Z,31.85
2022-08-18T07:32:50.897Z,26.25
2022-08-18T07:35:25.608Z,28.25
2022-08-18T07:38:31.263Z,26.17
2022-08-18T07:41:05.804Z,26.80
2022-08-18T07:43:45.506Z,30.10
2022-08-18T07:46:26.185Z,28.48
2022-08-18T07:48:56.477Z,25.67
2022-08-18T07:51:53.082Z,25.73
2022-08-18T07:54:48.417Z,24.08
2022-08-18T07:57:26.806Z,22.38
2022-08-18T08:00:30.535Z,24.57
2022-08-18T08:03:34.888Z,21.15
2022-08-18T08:06:28.303Z,18.95
2022-08-18T08:09:10.316Z,18.77
2022-08-18T08:14:29.972Z,22.08
2022-08-18T08:17:19.465Z,20.65
2022-08-18T08:20:12.255Z,22.85
2022-08-18T08:23:05.218Z,20.27
2022-08-18T08:25:47.645Z,21.63
2022-08-18T08:28:21.717Z,23.33
2022-08-18T08:31:13.535Z,20.83
2022-08-18T08:34:06.023Z,22.52
2022-08-18T08:36:40.242Z,28.27
2022-08-18T08:39:21.602Z,26.50
2022-08-18T08:42:32.100Z,18.20
2022-08-18T08:45:04.046Z,20.02
2022-08-18T08:48:17.715Z,21.08
2022-08-18T08:51:04.205Z,15.75
2022-08-18T08:53:37.367Z,15.20
2022-08-18T08:56:14.534Z,14.75
2022-08-18T08:58:52.566Z,15.98
2022-08-18T09:01:29.811Z,16.92
2022-08-18T09:04:15.708Z,15.48
2022-08-18T09:07:07.433Z,14.85
2022-08-18T09:10:20.329Z,16.60
2022-08-18T09:12:48.715Z,15.15
2022-08-18T09:15:45.213Z,16.50
2022-08-18T09:18:46.280Z,16.48
2022-08-18T09:21:38.835Z,17.23
2022-08-18T09:24:16.468Z,17.88
2022-08-18T09:27:22.965Z,16.33
2022-08-18T09:29:57.433Z,13.68
2022-08-18T09:32:28.464Z,12.05
2022-08-18T09:35:26.051Z,11.25
2022-08-18T09:38:30.031Z,12.18
2022-08-18T09:41:26.082Z,14.00
2022-08-18T09:44:12.037Z,11.82
2022-08-18T09:46:53.900Z,10.43
2022-08-18T09:49:22.367Z,12.80
2022-08-18T09:52:17.817Z,11.35
2022-08-18T09:55:02.459Z,12.52
2022-08-18T09:57:42.275Z,10.15
2022-08-18T10:00:13.208Z,10.40
2022-08-18T10:02:41.809Z,14.13
2022-08-18T10:05:17.159Z,11.32
2022-08-18T10:08:03.778Z,11.40
2022-08-18T10:11:01.449Z,11.23
2022-08-18T10:13:51.807Z,11.02
2022-08-18T10:16:57.473Z,9.30
2022-08-18T10:19:40.183Z,11.85
2022-08-18T10:22:10.704Z,13.10
2022-08-18T10:25:09.161Z,12.30
2022-08-18T10:27:55.497Z,10.73
2022-08-18T10:30:34.488Z,13.38
2022-08-18T10:33:17.691Z,10.63
2022-08-18T10:36:00.000Z,10.23
2022-08-18T10:38:40.968Z,10.70
2022-08-18T10:41:36.732Z,9.10
2022-08-18T10:44:28.331Z,9.60
2022-08-18T10:46:59.885Z,10.23
2022-08-18T10:49:32.194Z,10.20
2022-08-18T10:52:20.921Z,11.25
2022-08-18T10:54:58.978Z,11.45
2022-08-18T10:58:01.203Z,11.27
2022-08-18T11:00:46.332Z,10.55
2022-08-18T11:03:51.917Z,9.73
2022-08-18T11:06:26.054Z,12.65
2022-08-18T11:09:01.348Z,11.57
2022-08-18T11:11:52.763Z,9.60
2022-08-18T11:14:58.675Z,9.90
2022-08-18T11:17:52.425Z,11.63
2022-08-18T11:20:24.501Z,10.55
2022-08-18T11:22:57.134Z,11.82
2022-08-18T11:25:38.240Z,11.05
2022-08-18T11:28:19.374Z,10.25
2022-08-18T11:30:52.791Z,7.82
2022-08-18T11:33:24.391Z,9.20
2022-08-18T11:35:58.171Z,9.38
2022-08-18T11:38:29.670Z,11.27
2022-08-18T11:41:13.607Z,10.43
2022-08-18T11:43:46.613Z,11.27
2022-08-18T11:46:29.723Z,8.82
2022-08-18T11:49:13.869Z,8.93
2022-08-18T11:52:03.184Z,8.25
2022-08-18T11:54:50.922Z,9.43
2022-08-18T11:57:46.364Z,7.35
2022-08-18T12:00:48.716Z,11.38
2022-08-18T12:03:28.892Z,10.07
2022-08-18T12:06:19.114Z,10.02
2022-08-18T12:09:01.409Z,10.55
2022-08-18T12:11:41.334Z,10.93
2022-08-18T12:14:29.816Z,9.93
2022-08-18T12:17:01.700Z,9.02
2022-08-18T12:22:25.738Z,9.45
2022-08-18T12:24:55.194Z,8.88
2022-08-18T12:27:32.038Z,8.23
2022-08-18T12:30:01.899Z,8.93
2022-08-18T12:32:47.003Z,10.27
2022-08-18T12:35:22.633Z,8.15
2022-08-18T12:38:03.181Z,7.70
2022-08-18T12:40:40.157Z,7.90
2022-08-18T12:43:09.083Z,7.50
2022-08-18T12:45:39.015Z,7.38
2022-08-18T12:48:08.550Z,9.40
2022-08-18T12:50:49.815Z,7.60
2022-08-18T12:53:29.625Z,10.18
2022-08-18T12:56:25.595Z,7.03
2022-08-18T12:58:54.811Z,7.38
2022-08-18T13:01:27.770Z,6.82
2022-08-18T13:04:11.144Z,7.93
2022-08-18T13:07:00.725Z,8.48
2022-08-18T13:09:35.000Z,8.20
2022-08-18T13:12:17.627Z,9.60
2022-08-18T13:14:47.345Z,6.35
2022-08-18T13:17:30.414Z,6.30
2022-08-18T13:20:09.905Z,7.63
2022-08-18T13:22:41.495Z,6.93
2022-08-18T13:25:33.221Z,7.07
2022-08-18T13:28:02.603Z,8.40
2022-08-18T13:30:32.651Z,6.45
2022-08-18T13:33:02.455Z,8.25
2022-08-18T13:35:37.875Z,7.25
2022-08-18T13:38:14.493Z,8.65
2022-08-18T13:40:51.254Z,5.60
2022-08-18T13:43:25.966Z,5.90
2022-08-18T13:45:56.070Z,6.07
2022-08-18T13:48:25.500Z,7.93
2022-08-18T13:50:58.308Z,6.82
2022-08-18T13:53:31.627Z,5.50
2022-08-18T13:56:00.494Z,6.57
2022-08-18T13:58:29.714Z,6.88
2022-08-18T14:01:39.466Z,5.60
2022-08-18T14:03:54.128Z,6.15
2022-08-18T14:06:24.067Z,6.18
2022-08-18T14:08:53.988Z,5.90
2022-08-18T14:11:32.964Z,5.30
2022-08-18T14:14:02.397Z,6.68
2022-08-18T14:16:33.290Z,5.22
2022-08-18T14:19:22.593Z,4.93
2022-08-18T14:22:12.467Z,5.60
2022-08-18T14:25:01.678Z,6.25
2022-08-18T14:27:35.843Z,6.20
2022-08-18T14:30:10.597Z,6.38
2022-08-18T14:32:59.619Z,4.38
2022-08-18T14:36:04.264Z,7.88
2022-08-18T14:38:17.416Z,6.93
2022-08-18T14:40:47.371Z,5.75
2022-08-18T14:43:18.840Z,7.90
2022-08-18T14:45:48.841Z,6.75
2022-08-18T14:48:20.487Z,5.60
2022-08-18T14:50:52.949Z,5.65
2022-08-18T14:53:24.482Z,7.10
2022-08-18T14:55:56.257Z,5.88
2022-08-18T14:58:30.244Z,6.90
2022-08-18T15:01:08.516Z,5.97
2022-08-18T15:03:39.979Z,6.30
2022-08-18T15:06:10.449Z,7.35
2022-08-18T15:08:46.954Z,7.05
2022-08-18T15:11:16.513Z,6.00
2022-08-18T15:13:46.484Z,5.85
2022-08-18T15:16:16.086Z,6.85
2022-08-18T15:18:46.722Z,6.90
2022-08-18T15:21:38.747Z,5.80
2022-08-18T15:24:26.831Z,6.53
2022-08-18T15:27:05.451Z,6.97
2022-08-18T15:29:35.140Z,6.22
2022-08-18T15:32:06.158Z,7.22
2022-08-18T15:34:47.065Z,7.82
2022-08-18T15:37:24.379Z,7.30
2022-08-18T15:40:02.649Z,6.28
2022-08-18T15:42:31.507Z,7.28
2022-08-18T15:45:11.705Z,6.60
2022-08-18T15:47:43.452Z,7.32
2022-08-18T15:50:22.458Z,4.97
2022-08-18T15:52:58.753Z,5.95
2022-08-18T15:55:35.745Z,8.43
2022-08-18T15:58:11.208Z,8.25
2022-08-18T16:00:45.800Z,8.70
2022-08-18T16:03:16.623Z,7.13
2022-08-18T16:05:51.621Z,8.70
2022-08-18T16:08:24.621Z,6.57
2022-08-18T16:13:24.499Z,5.97
2022-08-18T16:15:53.298Z,7.20
2022-08-18T16:18:22.024Z,8.30
2022-08-18T16:20:52.793Z,9.05
2022-08-18T16:23:24.947Z,8.63
2022-08-18T16:26:01.332Z,9.68
2022-08-18T16:28:35.014Z,10.98
2022-08-18T16:31:04.154Z,9.18
2022-08-18T16:33:32.641Z,7.55
2022-08-18T16:36:06.856Z,8.00
2022-08-18T16:38:38.267Z,7.30
2022-08-18T16:41:14.092Z,8.30
2022-08-18T16:43:45.120Z,8.18
2022-08-18T16:46:17.840Z,7.32
2022-08-18T16:48:46.504Z,9.05
2022-08-18T16:51:17.469Z,7.97
2022-08-18T16:53:47.435Z,8.60
2022-08-18T16:56:19.379Z,5.95
2022-08-18T16:59:07.140Z,6.78
2022-08-18T17:01:55.132Z,8.10
2022-08-18T17:04:28.616Z,7.90
2022-08-18T17:06:57.276Z,8.68
2022-08-18T17:09:26.493Z,9.45
2022-08-18T17:11:55.191Z,7.65
2022-08-18T17:14:27.766Z,10.55
2022-08-18T17:16:58.538Z,9.05
2022-08-18T17:19:31.218Z,9.10
2022-08-18T17:22:02.468Z,9.45
2022-08-18T17:24:32.649Z,10.32
2022-08-18T17:27:20.380Z,9.77
2022-08-18T17:30:01.836Z,9.73
2022-08-18T17:32:46.610Z,11.85
2022-08-18T17:35:28.771Z,11.85
2022-08-18T17:38:02.420Z,10.82
2022-08-18T17:40:51.383Z,12.43
2022-08-18T17:43:22.559Z,10.52
2022-08-18T17:45:57.363Z,12.95
2022-08-18T17:48:36.613Z,11.70
2022-08-18T17:51:43.387Z,9.15
2022-08-18T17:54:30.553Z,12.45
2022-08-18T17:57:09.792Z,9.65
2022-08-18T17:59:52.088Z,10.45
2022-08-18T18:02:29.593Z,10.32
2022-08-18T18:05:01.987Z,9.80
2022-08-18T18:07:36.776Z,9.73
2022-08-18T18:10:14.453Z,9.75
2022-08-18T18:12:43.681Z,10.00
2022-08-18T18:15:13.719Z,11.05
2022-08-18T18:17:43.166Z,10.93
2022-08-18T18:20:15.603Z,9.38
2022-08-18T18:22:45.179Z,10.38
2022-08-18T18:25:34.627Z,8.82
2022-08-18T18:28:03.772Z,9.15
2022-08-18T18:30:33.459Z,8.73
2022-08-18T18:33:14.981Z,8.27
2022-08-18T18:35:53.153Z,9.20
2022-08-18T18:38:35.885Z,9.10
2022-08-18T18:41:13.422Z,7.97
2022-08-18T18:43:46.648Z,8.75
2022-08-18T18:46:18.593Z,8.05
2022-08-18T18:49:13.620Z,10.20
2022-08-18T18:51:54.073Z,9.70
2022-08-18T18:55:02.450Z,8.80
2022-08-18T18:58:27.443Z,8.30
2022-08-18T19:01:03.525Z,7.95
2022-08-18T19:03:50.828Z,7.78
2022-08-18T19:06:29.394Z,7.40
2022-08-18T19:09:16.300Z,8.55
2022-08-18T19:12:23.075Z,8.73
2022-08-18T19:15:00.279Z,8.05
2022-08-18T19:17:37.666Z,7.47
2022-08-18T19:20:09.821Z,8.57
2022-08-18T19:22:47.433Z,7.63
2022-08-18T19:25:27.679Z,8.25
2022-08-18T19:28:01.765Z,9.27
2022-08-18T19:30:33.572Z,10.25
2022-08-18T19:33:04.031Z,11.57
2022-08-18T19:35:45.561Z,9.00
2022-08-18T19:39:03.358Z,9.50
2022-08-18T19:41:59.364Z,7.88
2022-08-18T19:44:33.703Z,11.00
2022-08-18T19:47:15.864Z,9.27
2022-08-18T19:49:56.413Z,8.50
2022-08-18T19:52:45.593Z,11.07
2022-08-18T19:55:37.191Z,10.73
2022-08-18T19:58:29.777Z,10.98
2022-08-18T20:01:02.361Z,11.10
2022-08-18T20:04:25.658Z,11.85
2022-08-18T20:07:37.845Z,9.02
2022-08-18T20:10:30.900Z,10.95
2022-08-18T20:13:32.792Z,10.15
2022-08-18T20:16:10.685Z,11.27
2022-08-18T20:18:42.690Z,9.85
2022-08-18T20:21:14.347Z,8.52
2022-08-18T20:24:03.388Z,9.32
2022-08-18T20:26:35.105Z,9.98
2022-08-18T20:32:05.486Z,8.32
2022-08-18T20:34:35.544Z,9.25
2022-08-18T20:37:08.175Z,7.53
2022-08-18T20:39:45.405Z,9.80
2022-08-18T20:42:22.928Z,9.75
2022-08-18T20:44:58.648Z,9.98
2022-08-18T20:47:58.303Z,10.85
2022-08-18T20:50:45.474Z,10.15
2022-08-18T20:53:41.847Z,9.13
2022-08-18T20:56:52.932Z,9.38
2022-08-18T20:59:25.810Z,9.90
2022-08-18T21:01:57.412Z,8.98
2022-08-18T21:04:56.286Z,10.07
2022-08-18T21:07:37.063Z,9.45
2022-08-18T21:10:17.267Z,10.88
2022-08-18T21:13:00.054Z,8.02
2022-08-18T21:15:51.395Z,10.20
2022-08-18T21:18:21.169Z,8.18
2022-08-18T21:20:52.959Z,8.23
2022-08-18T21:26:06.417Z,7.97
2022-08-18T21:28:37.979Z,8.52
2022-08-18T21:31:41.860Z,7.95
2022-08-18T21:34:15.867Z,8.38
2022-08-18T21:39:21.932Z,7.43
2022-08-18T21:41:59.616Z,9.20
2022-08-18T21:44:45.623Z,7.97
2022-08-18T21:47:29.095Z,8.20
2022-08-18T21:50:23.334Z,9.55
2022-08-18T21:52:56.321Z,9.45
2022-08-18T21:55:31.785Z,8.82
2022-08-18T21:58:06.368Z,12.05
2022-08-18T22:00:38.323Z,9.45
2022-08-18T22:03:28.130Z,8.95
2022-08-18T22:06:40.398Z,9.95
2022-08-18T22:09:30.074Z,9.73
2022-08-18T22:12:42.140Z,11.13
2022-08-18T22:15:35.127Z,9.70
2022-08-18T22:18:40.366Z,9.60
2022-08-18T22:21:49.835Z,44.42
2022-08-18T22:24:28.093Z,12.20
2022-08-18T22:27:06.790Z,9.88
2022-08-18T22:29:49.596Z,11.43
2022-08-18T22:32:21.290Z,12.45
2022-08-18T22:34:51.183Z,10.02
2022-08-18T22:37:23.298Z,11.80
2022-08-18T22:39:58.120Z,8.90
2022-08-18T22:42:32.713Z,11.50
2022-08-18T22:45:04.955Z,12.75
2022-08-18T22:47:42.790Z,10.98
2022-08-18T22:50:12.831Z,12.00
2022-08-18T22:52:45.271Z,12.45
2022-08-18T22:55:17.877Z,13.77
2022-08-18T22:57:55.789Z,13.25
2022-08-18T23:00:26.484Z,14.43
2022-08-18T23:02:55.358Z,15.35
2022-08-18T23:05:24.688Z,15.55
2022-08-18T23:07:53.165Z,16.08
2022-08-18T23:10:21.698Z,17.48
2022-08-18T23:12:50.243Z,18.77
2022-08-18T23:15:19.204Z,18.95
2022-08-18T23:17:47.995Z,19.15
2022-08-18T23:20:19.229Z,23.00
2022-08-18T23:22:48.336Z,22.25
2022-08-18T23:25:17.228Z,20.75
2022-08-18T23:27:45.745Z,17.95
2022-08-18T23:30:15.299Z,20.60
2022-08-18T23:32:43.751Z,20.88
2022-08-18T23:35:12.344Z,20.05
2022-08-18T23:37:41.543Z,20.27
2022-08-18T23:40:17.404Z,19.05
2022-08-18T23:42:46.570Z,21.23
2022-08-18T23:45:16.057Z,19.58
2022-08-18T23:47:44.490Z,19.77
2022-08-18T23:50:13.091Z,17.85
2022-08-18T23:52:42.065Z,20.88
2022-08-18T23:55:13.431Z,18.48
2022-08-18T23:57:41.847Z,20.83
